Time;durP1;ratioP1;P1;durP2;ratioP2;P2;SDS_P1;SDS_P2;PMS_P1;PMS_P2;Temp;Humidity;BMP_temperature;BMP_pressure;BME280_temperature;BME280_humidity;BME280_pressure;Samples;Min_cycle;Max_cycle;Signal;HPM_P1;HPM_P2
2023/02/09 00:03:39;;;;;;;14.27;9.07;;;;;;;-0.30;100.00;103154.59;10392471;28;20132;-65
2023/02/09 00:08:39;;;;;;;14.32;10.65;;;;;;;-0.22;100.00;103158.69;10374612;28;20470;-65
2023/02/09 00:13:41;;;;;;;17.60;9.25;;;;;;;-0.34;100.00;103146.84;10376330;28;20113;-65
2023/02/09 00:18:41;;;;;;;17.63;9.63;;;;;;;-0.47;100.00;103146.56;10374924;28;20030;-65
2023/02/09 00:23:42;;;;;;;13.07;7.60;;;;;;;-0.72;100.00;103150.31;10376098;28;20069;-65
2023/02/09 00:28:42;;;;;;;12.60;9.25;;;;;;;-0.90;100.00;103147.59;10375141;28;20034;-65
2023/02/09 00:33:42;;;;;;;11.32;7.63;;;;;;;-1.05;100.00;103139.38;10375251;28;20062;-65
2023/02/09 00:38:43;;;;;;;16.35;8.98;;;;;;;-1.05;100.00;103141.19;10375496;28;20437;-65
2023/02/09 00:43:43;;;;;;;10.05;8.70;;;;;;;-1.04;99.96;103143.75;10375481;28;20041;-65
2023/02/09 00:48:44;;;;;;;11.60;9.02;;;;;;;-1.14;100.00;103137.13;10390552;28;20213;-65
2023/02/09 00:53:44;;;;;;;13.57;8.88;;;;;;;-1.10;100.00;103129.88;10373875;28;20042;-65
2023/02/09 00:58:45;;;;;;;11.93;9.77;;;;;;;-1.06;100.00;103134.13;10374500;28;20037;-65
2023/02/09 01:03:45;;;;;;;16.65;10.75;;;;;;;-1.01;100.00;103129.47;10374863;28;20159;-65
2023/02/09 01:08:45;;;;;;;18.20;11.05;;;;;;;-0.95;100.00;103134.53;10377201;28;20034;-65
2023/02/09 01:13:46;;;;;;;19.02;9.05;;;;;;;-0.92;100.00;103128.22;10377495;28;20069;-65
2023/02/09 01:18:46;;;;;;;13.65;8.18;;;;;;;-0.77;100.00;103124.84;10374611;28;20038;-65
2023/02/09 01:23:47;;;;;;;13.75;10.60;;;;;;;-0.52;100.00;103116.59;10373208;28;20172;-65
2023/02/09 01:28:49;;;;;;;14.32;9.80;;;;;;;-0.43;100.00;103121.50;10373786;28;20038;-65
2023/02/09 01:33:50;;;;;;;23.90;11.02;;;;;;;-0.29;100.00;103131.50;10374165;28;20383;-65
2023/02/09 01:38:53;;;;;;;25.17;11.27;;;;;;;-0.29;100.00;103121.75;10374797;28;20080;-65
2023/02/09 01:43:53;;;;;;;13.82;9.52;;;;;;;-0.17;100.00;103106.09;10373017;28;20526;-65
2023/02/09 01:49:17;;;;;;;17.40;10.05;;;;;;;-0.13;100.00;103110.34;10373358;28;20034;-65
2023/02/09 01:54:21;;;;;;;16.08;9.48;;;;;;;-0.09;100.00;103117.25;10376223;28;20054;-66
2023/02/09 01:59:22;;;;;;;14.07;9.95;;;;;;;-0.20;100.00;103117.75;10373269;28;20037;-65
2023/02/09 02:04:22;;;;;;;16.38;9.50;;;;;;;-0.26;100.00;103110.06;10373831;28;20121;-65
2023/02/09 02:09:23;;;;;;;16.50;10.18;;;;;;;-0.25;100.00;103107.34;10371708;28;20073;-65
2023/02/09 02:14:34;;;;;;;19.48;9.70;;;;;;;-0.19;100.00;103110.63;10374483;28;20033;-65
2023/02/09 02:19:47;;;;;;;18.85;10.52;;;;;;;-0.02;100.00;103084.06;10381418;28;20161;-65
2023/02/09 02:25:02;;;;;;;17.10;10.70;;;;;;;0.01;100.00;103073.25;10381102;28;20034;-65
2023/02/09 02:30:21;;;;;;;17.95;11.35;;;;;;;-0.02;100.00;103060.94;10380909;28;20048;-65
2023/02/09 02:35:30;;;;;;;15.90;10.10;;;;;;;-0.06;100.00;103048.72;10379818;28;20056;-65
2023/02/09 02:40:44;;;;;;;10.82;9.73;;;;;;;-0.06;100.00;103056.72;10380255;28;20030;-65
2023/02/09 02:45:53;;;;;;;12.25;10.18;;;;;;;-0.12;100.00;103042.84;10378433;28;20118;-65
2023/02/09 02:50:53;;;;;;;13.10;9.25;;;;;;;-0.18;100.00;103046.66;10378186;28;20469;-65
2023/02/09 02:55:59;;;;;;;16.73;10.77;;;;;;;-0.09;100.00;103051.53;10377928;28;20034;-65
2023/02/09 03:01:00;;;;;;;11.98;10.50;;;;;;;-0.03;100.00;103047.72;10377414;28;20256;-65
2023/02/09 03:06:01;;;;;;;15.63;10.93;;;;;;;-0.02;100.00;103029.00;10377674;28;20513;-65
2023/02/09 03:11:02;;;;;;;19.45;9.55;;;;;;;0.07;100.00;103026.81;10362193;28;20030;-65
2023/02/09 03:16:33;;;;;;;8.75;7.07;;;;;;;0.13;100.00;103026.50;10393862;28;20088;-65
2023/02/09 03:21:54;;;;;;;13.27;9.88;;;;;;;0.27;100.00;103020.47;10383784;28;20034;-65
2023/02/09 03:27:36;;;;;;;20.02;10.00;;;;;;;0.41;100.00;103009.94;10377402;28;20033;-65
2023/02/09 03:32:40;;;;;;;16.95;9.68;;;;;;;0.33;100.00;103007.69;10363206;28;20041;-65
2023/02/09 03:37:40;;;;;;;8.10;7.28;;;;;;;0.32;100.00;102999.75;10376718;28;20096;-65
2023/02/09 03:42:41;;;;;;;19.92;10.63;;;;;;;0.31;100.00;103003.38;10393343;28;20351;-65
2023/02/09 03:47:41;;;;;;;17.67;12.20;;;;;;;0.37;100.00;102987.06;10377242;28;20042;-65
2023/02/09 03:52:41;;;;;;;13.38;10.00;;;;;;;0.32;100.00;102997.09;10376459;28;20041;-65
2023/02/09 03:57:42;;;;;;;13.68;8.98;;;;;;;0.28;100.00;102998.22;10379716;28;20041;-65
2023/02/09 04:02:42;;;;;;;15.05;11.38;;;;;;;0.23;100.00;102991.31;10376245;28;20473;-65
2023/02/09 04:07:43;;;;;;;15.55;9.60;;;;;;;0.18;100.00;103000.47;10376465;28;20129;-64
2023/02/09 04:12:43;;;;;;;11.02;9.23;;;;;;;0.19;100.00;103002.19;10376396;28;20393;-65
2023/02/09 04:17:44;;;;;;;12.95;9.25;;;;;;;0.21;100.00;103003.00;10376230;28;20113;-65
2023/02/09 04:22:44;;;;;;;16.67;10.35;;;;;;;0.20;100.00;102988.81;10377074;28;20056;-65
2023/02/09 04:27:45;;;;;;;22.70;10.70;;;;;;;0.21;100.00;102990.53;10375251;28;20065;-65
2023/02/09 04:32:45;;;;;;;14.13;9.60;;;;;;;0.13;100.00;102983.88;10375635;28;20119;-65
2023/02/09 04:37:46;;;;;;;23.00;13.05;;;;;;;0.20;100.00;103006.59;10373606;28;20050;-65
2023/02/09 04:42:46;;;;;;;13.95;10.05;;;;;;;0.19;100.00;103007.53;10375829;28;20113;-66
2023/02/09 04:47:47;;;;;;;19.77;11.63;;;;;;;0.25;100.00;103017.00;10375693;28;20115;-65
2023/02/09 04:52:47;;;;;;;9.63;8.52;;;;;;;0.17;100.00;103020.09;10391507;28;20486;-65
2023/02/09 05:03:06;;;;;;;19.83;10.40;;;;;;;0.18;100.00;103006.66;10374808;28;20030;-65
2023/02/09 05:08:07;;;;;;;12.30;11.05;;;;;;;0.16;100.00;103015.66;10373298;28;20426;-65
2023/02/09 05:13:08;;;;;;;11.95;8.82;;;;;;;0.16;100.00;103036.97;10374638;28;20034;-65
2023/02/09 05:18:08;;;;;;;12.05;10.10;;;;;;;0.21;100.00;103048.28;10374376;28;20034;-65
2023/02/09 05:23:09;;;;;;;13.65;9.90;;;;;;;0.13;100.00;103037.16;10314488;28;20081;-65
2023/02/09 05:28:09;;;;;;;10.80;8.13;;;;;;;0.15;100.00;103049.44;10373872;28;20470;-65
2023/02/09 05:33:09;;;;;;;18.73;11.63;;;;;;;0.23;100.00;103043.75;10379281;28;20037;-65
2023/02/09 05:38:10;;;;;;;10.68;9.18;;;;;;;0.27;100.00;103055.13;10375025;28;20042;-65
2023/02/09 05:43:10;;;;;;;11.80;8.20;;;;;;;0.33;100.00;103044.16;10374016;28;20379;-65
2023/02/09 05:48:11;;;;;;;10.77;8.20;;;;;;;0.28;100.00;103035.50;10372327;28;20450;-66
2023/02/09 05:53:11;;;;;;;11.70;9.38;;;;;;;0.31;100.00;103024.69;10396304;28;20038;-65
2023/02/09 05:58:12;;;;;;;12.32;9.00;;;;;;;0.40;100.00;103057.06;10380974;28;20121;-65
2023/02/09 06:03:12;;;;;;;17.35;10.10;;;;;;;0.30;100.00;103061.16;10382299;28;20385;-65
2023/02/09 06:08:13;;;;;;;13.35;8.68;;;;;;;0.33;100.00;103058.31;10381400;28;20113;-65
2023/02/09 06:13:13;;;;;;;11.88;7.55;;;;;;;0.30;100.00;103054.97;10396183;28;20034;-65
2023/02/09 06:18:14;;;;;;;10.60;9.25;;;;;;;0.33;100.00;103062.81;10381206;28;20038;-65
2023/02/09 06:23:15;;;;;;;12.27;8.13;;;;;;;0.25;100.00;103070.31;10379169;28;20069;-65
2023/02/09 06:28:15;;;;;;;21.70;7.72;;;;;;;0.29;100.00;103064.75;10381377;28;20034;-65
2023/02/09 06:33:16;;;;;;;13.25;8.80;;;;;;;0.28;100.00;103076.34;10379888;28;20041;-64
2023/02/09 06:38:17;;;;;;;10.38;7.97;;;;;;;0.24;100.00;103088.09;10379822;28;20492;-65
2023/02/09 06:43:18;;;;;;;10.23;7.53;;;;;;;0.17;100.00;103082.22;10379670;28;20054;-65
2023/02/09 06:48:19;;;;;;;14.10;9.88;;;;;;;0.20;100.00;103063.41;10378303;28;20082;-65
2023/02/09 06:53:19;;;;;;;13.43;9.40;;;;;;;0.03;100.00;103078.50;10379862;28;20052;-65
2023/02/09 06:58:20;;;;;;;13.13;9.77;;;;;;;-0.05;100.00;103076.22;10379163;28;20129;-65
2023/02/09 07:03:20;;;;;;;13.05;9.27;;;;;;;-0.03;100.00;103061.91;10378146;28;20041;-64
2023/02/09 07:08:21;;;;;;;13.00;9.35;;;;;;;-0.04;100.00;103068.16;10376956;28;20045;-64
2023/02/09 07:13:21;;;;;;;10.38;8.38;;;;;;;-0.10;100.00;103073.75;10378594;28;20061;-65
2023/02/09 07:18:22;;;;;;;11.52;9.35;;;;;;;-0.06;100.00;103079.84;10378270;28;20457;-64
2023/02/09 07:23:22;;;;;;;14.50;8.43;;;;;;;-0.01;100.00;103077.78;10376028;28;20485;-65
2023/02/09 07:28:23;;;;;;;13.85;7.55;;;;;;;0.04;100.00;103080.25;10377783;28;20034;-65
2023/02/09 07:33:23;;;;;;;9.52;7.47;;;;;;;0.11;100.00;103101.16;10377432;28;20466;-64
2023/02/09 07:38:24;;;;;;;23.08;9.18;;;;;;;0.18;100.00;103083.94;10377262;28;20451;-65
2023/02/09 07:43:24;;;;;;;14.70;8.75;;;;;;;0.34;100.00;103085.84;10394037;28;20038;-65
2023/02/09 07:48:25;;;;;;;18.92;8.38;;;;;;;0.45;100.00;103081.69;10380530;28;20129;-65
2023/02/09 07:53:26;;;;;;;13.30;8.80;;;;;;;0.53;100.00;103083.97;10376991;28;20037;-65
2023/02/09 07:58:26;;;;;;;17.15;11.35;;;;;;;0.72;100.00;103089.22;10375505;28;20472;-65
2023/02/09 08:03:27;;;;;;;17.75;10.05;;;;;;;0.77;100.00;103102.31;10376685;28;20071;-64
2023/02/09 08:08:27;;;;;;;11.75;8.55;;;;;;;0.97;100.00;103096.78;10376663;28;20033;-65
2023/02/09 08:13:28;;;;;;;15.63;10.52;;;;;;;1.04;100.00;103114.19;10376509;28;20030;-65
2023/02/09 08:18:33;;;;;;;14.93;9.80;;;;;;;1.19;100.00;103087.66;10375346;28;20500;-65
2023/02/09 08:23:34;;;;;;;14.70;9.27;;;;;;;1.29;100.00;103103.06;10390296;28;20080;-65
2023/02/09 08:28:35;;;;;;;21.10;12.50;;;;;;;1.51;100.00;103085.91;10391492;28;20087;-65
2023/02/09 08:33:35;;;;;;;11.73;9.63;;;;;;;1.63;100.00;103082.53;10374516;28;20048;-63
2023/02/09 08:38:35;;;;;;;20.80;11.40;;;;;;;1.83;100.00;103079.59;10375217;28;20038;-65
2023/02/09 08:43:36;;;;;;;17.35;11.52;;;;;;;1.97;99.42;103092.16;10375367;28;20069;-65
2023/02/09 08:48:40;;;;;;;22.02;12.48;;;;;;;2.32;100.00;103092.81;10375750;28;20075;-65
2023/02/09 08:53:42;;;;;;;13.85;8.50;;;;;;;2.33;96.80;103099.03;10375079;28;20428;-65
2023/02/09 08:58:42;;;;;;;16.70;12.00;;;;;;;2.69;99.99;103098.66;10374813;28;20034;-65
2023/02/09 09:03:43;;;;;;;14.27;9.55;;;;;;;2.94;98.55;103090.00;10373660;28;20026;-65
2023/02/09 09:08:43;;;;;;;14.30;11.05;;;;;;;3.45;97.54;103086.88;10374473;28;20038;-65
2023/02/09 09:13:44;;;;;;;20.08;9.50;;;;;;;3.59;96.33;103094.00;10373287;28;20030;-65
2023/02/09 09:18:44;;;;;;;13.65;9.73;;;;;;;3.64;96.85;103105.31;10374256;28;20091;-65
2023/02/09 09:23:45;;;;;;;13.32;9.45;;;;;;;3.81;97.12;103096.16;10376720;28;20041;-65
2023/02/09 09:28:48;;;;;;;15.60;10.55;;;;;;;3.84;96.82;103107.56;10382402;28;20030;-65
2023/02/09 09:33:49;;;;;;;14.75;10.90;;;;;;;3.85;96.33;103119.13;10382103;28;20080;-65
2023/02/09 09:38:49;;;;;;;14.35;11.00;;;;;;;3.76;96.24;103114.34;10381043;28;20469;-65
2023/02/09 09:43:50;;;;;;;15.07;10.48;;;;;;;3.80;95.79;103122.13;10382156;28;20030;-65
2023/02/09 09:48:52;;;;;;;13.27;10.05;;;;;;;3.89;96.16;103121.53;10381399;28;20033;-65
2023/02/09 09:53:53;;;;;;;20.67;11.90;;;;;;;3.89;97.37;103124.22;10380897;28;20030;-65
2023/02/09 09:58:54;;;;;;;15.68;11.10;;;;;;;3.90;98.44;103117.88;10381439;28;20030;-65
2023/02/09 10:03:59;;;;;;;15.57;11.18;;;;;;;4.03;99.01;103127.81;10368031;28;20041;-65
2023/02/09 10:09:05;;;;;;;29.53;12.70;;;;;;;4.03;98.86;103127.81;10396435;28;20021;-65
2023/02/09 10:14:07;;;;;;;16.33;11.52;;;;;;;4.37;98.45;103132.66;10381733;28;20026;-65
2023/02/09 10:19:21;;;;;;;16.05;11.93;;;;;;;4.58;97.37;103129.50;10378973;28;20117;-65
2023/02/09 10:24:26;;;;;;;18.08;12.48;;;;;;;4.55;97.44;103137.75;10380454;28;20034;-65
2023/02/09 10:29:26;;;;;;;22.20;13.23;;;;;;;4.57;99.30;103139.38;10380381;28;20030;-65
2023/02/09 10:34:33;;;;;;;17.63;13.43;;;;;;;4.94;98.01;103133.31;10361770;28;20056;-64
2023/02/09 10:39:33;;;;;;;16.23;11.90;;;;;;;5.57;96.90;103144.06;10379672;28;20038;-65
2023/02/09 10:44:34;;;;;;;18.70;12.98;;;;;;;5.66;93.14;103144.38;10379548;28;20057;-65
2023/02/09 10:49:37;;;;;;;22.20;14.27;;;;;;;5.73;96.32;103146.50;10378925;28;20424;-65
2023/02/09 10:55:18;;;;;;;21.10;15.57;;;;;;;6.41;95.92;103155.00;10378569;28;20042;-65
2023/02/09 11:00:32;;;;;;;16.83;13.13;;;;;;;6.93;96.85;103162.72;10377706;28;20363;-65
2023/02/09 11:05:33;;;;;;;19.55;13.32;;;;;;;6.88;90.36;103158.63;10393722;28;20034;-65
2023/02/09 11:10:37;;;;;;;14.05;12.23;;;;;;;5.96;92.48;103160.13;10377268;28;20034;-65
2023/02/09 11:15:39;;;;;;;19.08;14.75;;;;;;;5.90;95.89;103161.41;10377300;28;20022;-65
2023/02/09 11:20:50;;;;;;;28.40;14.48;;;;;;;5.87;98.28;103166.16;10393985;28;20034;-65
2023/02/09 11:25:58;;;;;;;18.27;15.07;;;;;;;6.29;100.00;103171.13;10376925;28;20037;-65
2023/02/09 11:30:58;;;;;;;18.33;13.27;;;;;;;6.77;100.00;103153.22;10393908;28;20444;-65
2023/02/09 11:36:15;;;;;;;23.48;14.10;;;;;;;6.81;98.39;103165.47;10377862;28;20137;-65
2023/02/09 11:47:04;;;;;;;21.05;13.88;;;;;;;7.71;98.58;103160.22;10375567;28;20037;-65
2023/02/09 11:52:04;;;;;;;22.50;16.45;;;;;;;7.47;93.02;103158.50;10360005;28;20057;-65
2023/02/09 11:57:17;;;;;;;33.90;16.17;;;;;;;7.69;97.28;103145.03;10375739;28;20041;-65
2023/02/09 12:02:46;;;;;;;19.48;15.15;;;;;;;7.23;94.66;103145.97;10374855;28;20040;-65
2023/02/09 12:08:14;;;;;;;22.42;16.08;;;;;;;6.80;96.54;103153.00;10376551;28;20049;-65
2023/02/09 12:13:30;;;;;;;22.08;14.95;;;;;;;6.42;98.96;103143.31;10376795;28;20466;-65
2023/02/09 12:18:32;;;;;;;21.80;14.27;;;;;;;6.35;100.00;103136.63;10378031;28;20421;-65
2023/02/09 12:23:36;;;;;;;25.48;16.50;;;;;;;6.38;100.00;103144.47;10359153;28;20038;-65
2023/02/09 12:28:38;;;;;;;19.98;15.57;;;;;;;6.45;100.00;103138.53;10375662;28;20041;-65
2023/02/09 12:33:59;;;;;;;21.13;15.00;;;;;;;6.35;100.00;103131.25;10375288;28;20488;-65
2023/02/09 12:39:00;;;;;;;23.10;15.90;;;;;;;6.24;100.00;103122.16;10375519;28;20458;-65
2023/02/09 12:44:10;;;;;;;26.70;16.02;;;;;;;6.33;100.00;103123.31;10376022;28;20033;-65
2023/02/09 12:49:10;;;;;;;27.23;17.60;;;;;;;6.29;100.00;103130.75;10373916;28;20084;-65
2023/02/09 12:54:31;;;;;;;23.73;15.15;;;;;;;6.39;100.00;103130.06;10375026;28;20026;-65
2023/02/09 12:59:31;;;;;;;29.02;15.73;;;;;;;6.39;100.00;103130.94;10374988;28;20115;-65
2023/02/09 13:04:38;;;;;;;28.85;17.35;;;;;;;6.20;100.00;103118.00;10374708;28;20115;-65
2023/02/09 13:09:38;;;;;;;;;;;;;;;6.07;100.00;103122.56;10372684;28;20044;-65
2023/02/09 13:14:40;;;;;;;24.30;16.13;;;;;;;6.14;100.00;103122.97;10389620;28;20000;-65
2023/02/09 13:20:18;;;;;;;24.75;17.75;;;;;;;6.06;100.00;103131.59;10372977;28;20029;-65
2023/02/09 13:25:38;;;;;;;29.48;19.10;;;;;;;5.92;100.00;103129.03;10375450;28;20069;-65
2023/02/09 13:30:40;;;;;;;24.95;19.30;;;;;;;5.94;100.00;103129.81;10372240;28;20046;-65
2023/02/09 13:35:58;;;;;;;28.08;18.63;;;;;;;5.92;100.00;103129.03;10373802;28;20053;-65
2023/02/09 13:40:59;;;;;;;30.80;20.02;;;;;;;6.04;100.00;103144.31;10374230;28;20065;-65
2023/02/09 13:46:00;;;;;;;31.67;20.95;;;;;;;6.02;100.00;103143.56;10389168;28;20030;-65
2023/02/09 13:51:02;;;;;;;31.25;20.05;;;;;;;6.06;100.00;103147.72;10389234;28;20066;-65
2023/02/09 13:56:03;;;;;;;32.30;19.88;;;;;;;6.13;100.00;103146.31;10373758;28;20484;-65
2023/02/09 14:01:11;;;;;;;31.80;21.98;;;;;;;6.17;100.00;103142.44;10373621;28;20109;-65
2023/02/09 14:06:23;;;;;;;27.90;19.33;;;;;;;6.22;100.00;103148.34;10372480;28;20481;-65
2023/02/09 14:11:27;;;;;;;32.38;21.40;;;;;;;6.20;100.00;103147.59;10391633;28;20084;-65
2023/02/09 14:16:27;;;;;;;28.38;22.42;;;;;;;6.13;100.00;103149.03;10380056;28;20042;-65
2023/02/09 14:21:43;;;;;;;34.55;22.33;;;;;;;6.14;100.00;103149.88;10396463;28;20033;-65
2023/02/09 14:26:46;;;;;;;33.60;21.17;;;;;;;6.21;100.00;103157.38;10380894;28;20041;-65
2023/02/09 14:31:48;;;;;;;42.60;24.38;;;;;;;6.33;100.00;103160.13;10380198;28;20025;-65
2023/02/09 14:36:54;;;;;;;27.02;20.77;;;;;;;6.36;100.00;103165.28;10378580;28;20057;-65
2023/02/09 14:42:07;;;;;;;38.72;23.77;;;;;;;6.22;100.00;103168.97;10377962;28;20029;-65
2023/02/09 14:47:25;;;;;;;31.60;22.77;;;;;;;6.14;100.00;103177.63;10393203;28;20037;-65
2023/02/09 14:52:27;;;;;;;29.92;21.15;;;;;;;6.11;100.00;103182.38;10361915;28;20389;-65
2023/02/09 14:57:29;;;;;;;34.80;21.02;;;;;;;6.08;100.00;103183.44;10379138;28;20053;-65
2023/02/09 15:02:29;;;;;;;26.10;20.88;;;;;;;6.15;100.00;103190.09;10396003;28;20022;-66
2023/02/09 15:07:33;;;;;;;38.58;24.02;;;;;;;6.21;100.00;103200.41;10394218;28;20026;-65
2023/02/09 15:12:34;;;;;;;31.02;21.13;;;;;;;6.29;100.00;103206.09;10394718;28;20099;-65
2023/02/09 15:17:34;;;;;;;40.75;22.38;;;;;;;6.37;100.00;103204.66;10378614;28;20091;-65
2023/02/09 15:22:35;;;;;;;33.38;24.05;;;;;;;6.47;100.00;103200.31;10376965;28;20056;-65
2023/02/09 15:28:13;;;;;;;32.97;24.05;;;;;;;6.64;100.00;103209.84;10377903;28;20038;-65
2023/02/09 15:33:13;;;;;;;35.80;22.45;;;;;;;6.69;100.00;103213.03;10367187;28;20038;-65
2023/02/09 15:38:14;;;;;;;44.55;23.95;;;;;;;6.72;100.00;103221.75;10377249;28;20486;-65
2023/02/09 15:48:35;;;;;;;40.15;23.30;;;;;;;6.70;100.00;103218.31;10375597;28;20069;-65
2023/02/09 15:53:36;;;;;;;32.10;22.67;;;;;;;6.67;100.00;103225.78;10377385;28;20122;-65
2023/02/09 15:58:38;;;;;;;28.38;20.88;;;;;;;6.71;100.00;103230.81;10375796;28;20034;-65
2023/02/09 16:03:38;;;;;;;29.90;19.58;;;;;;;6.71;100.00;103233.50;10376210;28;20041;-65
2023/02/09 16:08:39;;;;;;;35.97;21.33;;;;;;;6.71;100.00;103236.19;10376048;28;20077;-65
2023/02/09 16:13:45;;;;;;;34.92;18.08;;;;;;;6.47;100.00;103232.63;10376309;28;20038;-65
2023/02/09 16:18:45;;;;;;;27.80;17.58;;;;;;;6.13;100.00;103245.88;10391589;28;20038;-65
2023/02/09 16:23:46;;;;;;;27.70;18.23;;;;;;;5.88;100.00;103260.16;10375198;28;20411;-65
2023/02/09 16:28:46;;;;;;;31.67;16.58;;;;;;;5.69;100.00;103265.13;10391783;28;20164;-65
2023/02/09 16:33:49;;;;;;;28.92;15.70;;;;;;;5.58;100.00;103279.28;10375032;28;20034;-65
2023/02/09 16:38:49;;;;;;;24.30;18.15;;;;;;;5.45;100.00;103287.34;10378191;28;20038;-65
2023/02/09 16:43:50;;;;;;;27.88;20.02;;;;;;;5.27;100.00;103289.47;10392311;28;20113;-65
2023/02/09 16:48:50;;;;;;;31.30;19.85;;;;;;;5.17;100.00;103303.63;10375236;28;20045;-65
2023/02/09 16:53:51;;;;;;;33.67;19.58;;;;;;;5.10;100.00;103311.22;10374078;28;20152;-65
2023/02/09 16:58:51;;;;;;;40.22;21.75;;;;;;;5.13;100.00;103314.56;10373178;28;20121;-65
2023/02/09 17:03:53;;;;;;;25.48;15.95;;;;;;;5.01;100.00;103319.88;10373878;28;20141;-65
2023/02/09 17:08:55;;;;;;;33.35;18.75;;;;;;;4.87;100.00;103321.66;10374836;28;20034;-65
2023/02/09 17:13:55;;;;;;;35.88;19.95;;;;;;;4.68;100.00;103337.25;10374823;28;20033;-65
2023/02/09 17:18:58;;;;;;;30.58;19.42;;;;;;;4.52;100.00;103344.56;10373381;28;20038;-65
2023/02/09 17:23:58;;;;;;;31.92;20.10;;;;;;;4.43;100.00;103341.53;10374478;28;20034;-65
2023/02/09 17:28:59;;;;;;;26.52;18.15;;;;;;;4.32;100.00;103349.38;10389620;28;20108;-65
2023/02/09 17:34:00;;;;;;;29.92;19.38;;;;;;;4.20;100.00;103344.78;10374742;28;20053;-65
2023/02/09 17:39:00;;;;;;;29.83;19.23;;;;;;;4.12;100.00;103358.66;10374327;28;20096;-65
2023/02/09 17:44:15;;;;;;;34.03;20.33;;;;;;;4.04;100.00;103371.66;10374067;28;20445;-65
2023/02/09 17:49:15;;;;;;;28.77;20.00;;;;;;;3.90;100.00;103377.03;10381515;28;20084;-65
2023/02/09 17:54:17;;;;;;;31.88;21.15;;;;;;;3.82;100.00;103376.63;10382439;28;20073;-65
2023/02/09 17:59:18;;;;;;;28.77;20.15;;;;;;;3.77;100.00;103374.22;10396872;28;20049;-65
2023/02/09 18:04:21;;;;;;;45.42;22.13;;;;;;;3.76;100.00;103383.19;10381879;28;20030;-65
2023/02/09 18:09:21;;;;;;;40.35;25.25;;;;;;;3.71;100.00;103396.03;10382059;28;20473;-65
2023/02/09 18:14:22;;;;;;;34.67;24.88;;;;;;;3.63;100.00;103399.16;10380534;28;20049;-65
2023/02/09 18:19:23;;;;;;;37.53;23.88;;;;;;;3.50;100.00;103387.44;10379542;28;20545;-65
2023/02/09 18:24:25;;;;;;;35.45;24.40;;;;;;;3.33;100.00;103398.28;10379658;28;20124;-65
2023/02/09 18:29:28;;;;;;;39.95;25.05;;;;;;;3.22;100.00;103415.84;10379796;28;20038;-66
2023/02/09 18:34:28;;;;;;;30.65;21.05;;;;;;;3.12;100.00;103411.06;10380651;28;20116;-65
2023/02/09 18:39:29;;;;;;;36.90;21.65;;;;;;;3.05;100.00;103409.69;10394780;28;20037;-65
2023/02/09 18:44:31;;;;;;;37.75;23.33;;;;;;;2.99;100.00;103425.16;10380439;28;20077;-65
2023/02/09 18:49:31;;;;;;;39.47;22.55;;;;;;;2.95;100.00;103426.28;10378411;28;20088;-65
2023/02/09 18:54:32;;;;;;;35.63;23.27;;;;;;;2.94;100.00;103429.91;10397322;28;20236;-65
2023/02/09 18:59:33;;;;;;;34.05;23.58;;;;;;;2.89;100.00;103440.00;10378989;28;20053;-64
2023/02/09 19:04:33;;;;;;;38.90;21.23;;;;;;;2.88;100.00;103446.31;10379099;28;20046;-65
2023/02/09 19:09:34;;;;;;;32.17;21.50;;;;;;;2.85;100.00;103445.63;10362456;28;20080;-65
2023/02/09 19:14:41;;;;;;;38.55;23.30;;;;;;;2.79;100.00;103453.03;10377658;28;20038;-65
2023/02/09 19:19:41;;;;;;;43.88;24.38;;;;;;;2.72;100.00;103453.44;10395074;28;20033;-65
2023/02/09 19:24:42;;;;;;;32.88;21.42;;;;;;;2.61;100.00;103461.19;10393216;28;20422;-65
2023/02/09 19:29:43;;;;;;;38.92;22.38;;;;;;;2.53;100.00;103465.13;10379440;28;20120;-65
2023/02/09 19:34:44;;;;;;;33.28;21.15;;;;;;;2.51;100.00;103472.38;10377240;28;20058;-65
2023/02/09 19:39:51;;;;;;;37.30;22.33;;;;;;;2.50;100.00;103459.94;10377729;28;20470;-64
2023/02/09 19:44:52;;;;;;;37.50;22.42;;;;;;;2.48;100.00;103472.53;10378029;28;20159;-65
2023/02/09 19:49:53;;;;;;;32.00;20.17;;;;;;;2.42;100.00;103474.66;10392360;28;20030;-65
2023/02/09 19:54:54;;;;;;;32.38;21.40;;;;;;;2.42;100.00;103477.34;10378092;28;20075;-66
2023/02/09 19:59:54;;;;;;;28.48;21.38;;;;;;;2.41;100.00;103476.47;10375232;28;20038;-65
2023/02/09 20:04:55;;;;;;;41.95;21.73;;;;;;;2.31;100.00;103476.09;10377152;28;20092;-65
2023/02/09 20:09:56;;;;;;;32.95;20.40;;;;;;;2.17;100.00;103489.34;10390267;28;20120;-65
2023/02/09 20:14:57;;;;;;;37.95;20.80;;;;;;;2.10;100.00;103496.78;10375770;28;20104;-65
2023/02/09 20:19:57;;;;;;;34.80;18.30;;;;;;;1.96;100.00;103499.28;10375426;28;20088;-66
2023/02/09 20:24:57;;;;;;;28.10;18.27;;;;;;;1.98;100.00;103507.22;10376148;28;20398;-65
2023/02/09 20:30:00;;;;;;;39.53;19.70;;;;;;;2.00;100.00;103508.03;10375798;28;20117;-65
2023/02/09 20:35:00;;;;;;;26.77;18.83;;;;;;;1.98;100.00;103512.56;10375887;28;20107;-65
2023/02/09 20:40:01;;;;;;;24.38;17.60;;;;;;;1.96;100.00;103515.34;10375826;28;20042;-65
2023/02/09 20:50:20;;;;;;;24.58;16.75;;;;;;;1.79;100.00;103516.19;10375269;28;20053;-65
2023/02/09 20:55:21;;;;;;;26.40;17.83;;;;;;;1.60;100.00;103524.22;10375020;28;20477;-65
2023/02/09 21:00:21;;;;;;;35.85;18.88;;;;;;;1.49;100.00;103531.03;10374056;28;20116;-65
2023/02/09 21:05:22;;;;;;;28.33;15.65;;;;;;;1.49;100.00;103542.56;10375052;28;20038;-64
2023/02/09 21:10:22;;;;;;;25.48;16.50;;;;;;;1.45;100.00;103543.66;10376775;28;20088;-64
2023/02/09 21:15:23;;;;;;;26.45;16.25;;;;;;;1.46;100.00;103539.16;10375717;28;20104;-65
2023/02/09 21:20:23;;;;;;;49.05;23.35;;;;;;;1.46;100.00;103534.69;10379663;28;20125;-65
2023/02/09 21:25:24;;;;;;;29.98;18.02;;;;;;;1.51;100.00;103532.69;10365025;28;20034;-66
2023/02/09 21:30:25;;;;;;;30.20;18.60;;;;;;;1.50;100.00;103528.28;10382419;28;20038;-65
2023/02/09 21:35:26;;;;;;;30.70;17.55;;;;;;;1.51;100.00;103546.03;10383452;28;20053;-65
2023/02/09 21:40:26;;;;;;;30.92;15.95;;;;;;;1.43;100.00;103548.19;10381278;28;20050;-65
2023/02/09 21:45:26;;;;;;;41.95;16.50;;;;;;;1.46;100.00;103547.19;10382681;28;20119;-65
2023/02/09 21:50:27;;;;;;;31.35;15.23;;;;;;;1.60;100.00;103558.09;10382170;28;20103;-65
2023/02/09 21:55:30;;;;;;;29.02;16.20;;;;;;;1.55;100.00;103550.28;10381194;28;20034;-65
2023/02/09 22:00:30;;;;;;;34.45;20.00;;;;;;;1.58;100.00;103555.47;10380111;28;20037;-64
2023/02/09 22:05:31;;;;;;;31.67;15.57;;;;;;;1.50;100.00;103552.31;10381186;28;20118;-65
2023/02/09 22:10:31;;;;;;;23.30;15.15;;;;;;;1.48;100.00;103551.53;10379589;28;20124;-65
2023/02/09 22:15:32;;;;;;;24.02;15.75;;;;;;;1.45;100.00;103553.47;10381225;28;20085;-65
2023/02/09 22:20:32;;;;;;;20.27;12.85;;;;;;;1.43;100.00;103556.19;10397283;28;20026;-65
2023/02/09 22:25:33;;;;;;;29.45;14.20;;;;;;;1.47;100.00;103549.78;10381248;28;20046;-64
2023/02/09 22:30:34;;;;;;;35.95;13.23;;;;;;;1.49;100.00;103545.22;10394324;28;20041;-65
2023/02/09 22:35:39;;;;;;;30.92;15.57;;;;;;;1.49;100.00;103545.22;10380565;28;20050;-65
2023/02/09 22:40:39;;;;;;;50.20;20.65;;;;;;;1.52;100.00;103549.56;10380794;28;20038;-65
2023/02/09 22:45:39;;;;;;;35.40;14.75;;;;;;;1.45;100.00;103548.13;10396827;28;20041;-64
2023/02/09 22:50:40;;;;;;;36.35;15.25;;;;;;;1.40;100.00;103545.66;10380057;28;20466;-65
2023/02/09 22:55:40;;;;;;;37.67;16.25;;;;;;;1.38;100.00;103543.09;10378642;28;20034;-64
2023/02/09 23:00:41;;;;;;;24.65;12.38;;;;;;;1.31;100.00;103546.13;10380167;28;20033;-65
2023/02/09 23:05:41;;;;;;;20.63;10.80;;;;;;;1.26;100.00;103561.47;10379167;28;20038;-65
2023/02/09 23:10:41;;;;;;;12.40;8.75;;;;;;;1.26;100.00;103559.66;10379093;28;20192;-65